Time;durP1;ratioP1;P1;durP2;ratioP2;P2;SDS_P1;SDS_P2;PMS_P1;PMS_P2;Temp;Humidity;BMP_temperature;BMP_pressure;BME280_temperature;BME280_humidity;BME280_pressure;Samples;Min_cycle;Max_cycle;Signal;HPM_P1;HPM_P2
2022/11/10 00:00:10;;;;;;;21.92;8.32;;;;;;;;;;1025907;28;20018;-75
2022/11/10 00:00:40;;;;;;;20.10;6.82;;;;;;;;;;1029411;28;20533;-75
2022/11/10 00:01:11;;;;;;;20.92;9.05;;;;;;;;;;1030694;28;20014;-75
2022/11/10 00:01:42;;;;;;;28.45;12.75;;;;;;;;;;1025980;28;20031;-75
2022/11/10 00:02:13;;;;;;;38.45;13.05;;;;;;;;;;1026837;28;20046;-75
2022/11/10 00:02:43;;;;;;;24.35;11.30;;;;;;;;;;1020713;29;20024;-75
2022/11/10 00:03:14;;;;;;;37.30;12.63;;;;;;;;;;1021896;29;20019;-75
2022/11/10 00:03:47;;;;;;;26.08;12.68;;;;;;;;;;1025828;28;20023;-75
2022/11/10 00:04:18;;;;;;;26.42;11.30;;;;;;;;;;1026822;28;20023;-75
2022/11/10 00:04:48;;;;;;;30.50;12.48;;;;;;;;;;1029242;28;20165;-75
2022/11/10 00:05:19;;;;;;;33.53;12.57;;;;;;;;;;1027015;28;20019;-75
2022/11/10 00:05:50;;;;;;;32.90;13.13;;;;;;;;;;1029440;28;20077;-75
2022/11/10 00:06:20;;;;;;;40.33;15.30;;;;;;;;;;1026189;28;20430;-75
2022/11/10 00:06:51;;;;;;;45.72;17.35;;;;;;;;;;1025285;28;20045;-75
2022/11/10 00:07:25;;;;;;;48.05;15.63;;;;;;;;;;1022184;29;20084;-74
2022/11/10 00:07:56;;;;;;;57.78;18.67;;;;;;;;;;1022662;29;20031;-75
2022/11/10 00:08:26;;;;;;;48.75;18.55;;;;;;;;;;1027745;28;20027;-75
2022/11/10 00:08:57;;;;;;;42.70;17.95;;;;;;;;;;1028042;28;20034;-74
2022/11/10 00:09:27;;;;;;;53.58;22.20;;;;;;;;;;1031187;28;20014;-74
2022/11/10 00:09:58;;;;;;;56.72;22.42;;;;;;;;;;1030007;28;20037;-74
2022/11/10 00:10:28;;;;;;;49.63;21.25;;;;;;;;;;1025844;28;20101;-74
2022/11/10 00:11:05;;;;;;;56.17;22.13;;;;;;;;;;1025579;28;20101;-74
2022/11/10 00:11:35;;;;;;;60.65;20.33;;;;;;;;;;1026294;28;20029;-75
2022/11/10 00:12:06;;;;;;;49.10;19.48;;;;;;;;;;1026995;28;20028;-74
2022/11/10 00:12:37;;;;;;;50.28;19.90;;;;;;;;;;1030246;28;20030;-75
2022/11/10 00:13:07;;;;;;;49.20;22.70;;;;;;;;;;1030389;28;20022;-75
2022/11/10 00:17:00;;;;;;;58.40;21.75;;;;;;;;;;1030681;28;20470;-74
2022/11/10 00:17:31;;;;;;;52.55;21.50;;;;;;;;;;1030347;28;20479;-74
2022/11/10 00:18:02;;;;;;;61.22;24.45;;;;;;;;;;1029974;28;20027;-74
2022/11/10 00:18:33;;;;;;;47.53;20.58;;;;;;;;;;1030820;28;20029;-74
2022/11/10 00:19:03;;;;;;;51.80;22.67;;;;;;;;;;1030794;28;20101;-74
2022/11/10 00:19:34;;;;;;;56.70;21.83;;;;;;;;;;1025969;28;20047;-74
2022/11/10 00:20:05;;;;;;;52.85;21.17;;;;;;;;;;1026219;28;20061;-74
2022/11/10 00:20:35;;;;;;;53.88;20.95;;;;;;;;;;1027630;28;20027;-74
2022/11/10 00:21:08;;;;;;;59.60;21.33;;;;;;;;;;1025877;28;20474;-74
2022/11/10 00:21:38;;;;;;;56.80;22.15;;;;;;;;;;1026006;28;20023;-74
2022/11/10 00:22:09;;;;;;;65.70;22.05;;;;;;;;;;1026067;28;20093;-74
2022/11/10 00:22:40;;;;;;;46.30;20.17;;;;;;;;;;1027495;28;20486;-75
2022/11/10 00:23:10;;;;;;;47.13;21.02;;;;;;;;;;1028207;28;20022;-75
2022/11/10 00:23:41;;;;;;;49.35;20.98;;;;;;;;;;1030670;28;20026;-75
2022/11/10 00:24:12;;;;;;;48.45;21.60;;;;;;;;;;1030488;28;20113;-75
2022/11/10 00:24:43;;;;;;;59.92;20.90;;;;;;;;;;1030058;28;20109;-75
2022/11/10 00:25:14;;;;;;;52.97;20.27;;;;;;;;;;1026946;28;20033;-75
2022/11/10 00:25:44;;;;;;;55.92;22.95;;;;;;;;;;1026657;28;20034;-75
2022/11/10 00:26:16;;;;;;;54.63;20.15;;;;;;;;;;1018640;29;20411;-75
2022/11/10 00:26:47;;;;;;;50.92;21.02;;;;;;;;;;1019118;29;20058;-75
2022/11/10 00:27:18;;;;;;;37.22;18.13;;;;;;;;;;1023843;29;20029;-74
2022/11/10 00:27:49;;;;;;;44.45;21.08;;;;;;;;;;1027440;28;20655;-74
2022/11/10 00:28:19;;;;;;;41.90;17.80;;;;;;;;;;1030594;28;20418;-74
2022/11/10 00:28:50;;;;;;;53.53;19.55;;;;;;;;;;1030228;28;20471;-74
2022/11/10 00:29:21;;;;;;;50.13;21.90;;;;;;;;;;1030313;28;20135;-74
2022/11/10 00:29:52;;;;;;;48.35;18.67;;;;;;;;;;1029784;28;20170;-74
2022/11/10 00:30:22;;;;;;;53.58;19.73;;;;;;;;;;1026098;28;20572;-74
2022/11/10 00:30:53;;;;;;;42.53;17.50;;;;;;;;;;1025740;28;20027;-75
2022/11/10 00:31:24;;;;;;;58.17;19.73;;;;;;;;;;1025823;28;20078;-75
2022/11/10 00:31:54;;;;;;;51.53;18.35;;;;;;;;;;1026036;28;20175;-75
2022/11/10 00:32:25;;;;;;;62.22;20.10;;;;;;;;;;1029564;28;20030;-75
2022/11/10 00:32:55;;;;;;;47.25;18.83;;;;;;;;;;1030446;28;20026;-75
2022/11/10 00:33:26;;;;;;;39.95;17.58;;;;;;;;;;1026020;28;20474;-75
2022/11/10 00:33:57;;;;;;;55.75;18.02;;;;;;;;;;1026359;28;20040;-75
2022/11/10 00:34:27;;;;;;;47.10;17.48;;;;;;;;;;1027231;28;20391;-74
2022/11/10 00:34:58;;;;;;;56.45;19.65;;;;;;;;;;1026083;28;20082;-75
2022/11/10 00:35:28;;;;;;;45.08;16.95;;;;;;;;;;1029544;28;20430;-75
2022/11/10 00:35:59;;;;;;;45.42;16.90;;;;;;;;;;1030336;28;20434;-75
2022/11/10 00:36:30;;;;;;;41.08;17.73;;;;;;;;;;1026246;28;20395;-75
2022/11/10 00:37:01;;;;;;;53.20;18.27;;;;;;;;;;1025246;28;20042;-75
2022/11/10 00:37:32;;;;;;;42.95;17.90;;;;;;;;;;1022408;29;20023;-75
2022/11/10 00:38:02;;;;;;;33.75;15.95;;;;;;;;;;1022575;28;20086;-75
2022/11/10 00:38:33;;;;;;;40.72;17.33;;;;;;;;;;1024249;28;20031;-74
2022/11/10 00:39:04;;;;;;;48.97;18.38;;;;;;;;;;1023968;28;20023;-74
2022/11/10 00:39:35;;;;;;;38.15;17.33;;;;;;;;;;1026177;28;20031;-74
2022/11/10 00:40:06;;;;;;;40.70;17.35;;;;;;;;;;1026632;28;20023;-74
2022/11/10 00:40:37;;;;;;;36.97;15.82;;;;;;;;;;1026312;28;20403;-75
2022/11/10 00:41:07;;;;;;;47.95;16.35;;;;;;;;;;1026223;28;20034;-75
2022/11/10 00:41:38;;;;;;;40.83;17.55;;;;;;;;;;1022857;29;20039;-75
2022/11/10 00:42:09;;;;;;;42.28;18.25;;;;;;;;;;1022424;29;20035;-75
2022/11/10 00:42:39;;;;;;;42.97;17.52;;;;;;;;;;1026304;28;20047;-75
2022/11/10 00:43:10;;;;;;;39.28;18.70;;;;;;;;;;1026316;28;20027;-75
2022/11/10 00:43:40;;;;;;;53.83;18.50;;;;;;;;;;1025802;28;20454;-75
2022/11/10 00:44:11;;;;;;;54.45;19.13;;;;;;;;;;1026714;28;20477;-75
2022/11/10 00:44:42;;;;;;;49.45;16.17;;;;;;;;;;1025765;28;20030;-76
2022/11/10 00:45:12;;;;;;;44.95;18.63;;;;;;;;;;1030126;28;20147;-75
2022/11/10 00:45:43;;;;;;;47.53;17.80;;;;;;;;;;1030045;28;20030;-75
2022/11/10 00:46:14;;;;;;;41.30;19.33;;;;;;;;;;1026432;28;20059;-75
2022/11/10 00:46:45;;;;;;;46.35;18.65;;;;;;;;;;1025572;28;20027;-75
2022/11/10 00:47:15;;;;;;;44.63;17.17;;;;;;;;;;1026205;28;20094;-75
2022/11/10 00:47:46;;;;;;;48.83;18.90;;;;;;;;;;1021806;29;20027;-75
2022/11/10 00:48:16;;;;;;;47.85;18.00;;;;;;;;;;1025907;28;20081;-75
2022/11/10 00:48:47;;;;;;;46.13;18.20;;;;;;;;;;1025037;28;20029;-75
2022/11/10 00:49:18;;;;;;;42.10;17.70;;;;;;;;;;1024777;28;20027;-75
2022/11/10 00:49:48;;;;;;;43.38;17.75;;;;;;;;;;1029607;28;20034;-75
2022/11/10 00:50:19;;;;;;;37.55;17.15;;;;;;;;;;1029717;28;20577;-75
2022/11/10 00:50:50;;;;;;;45.10;17.02;;;;;;;;;;1021707;28;20031;-75
2022/11/10 00:51:28;;;;;;;48.35;17.98;;;;;;;;;;1026853;28;20537;-75
2022/11/10 00:51:58;;;;;;;25.45;14.43;;;;;;;;;;1025955;28;20509;-74
2022/11/10 00:52:29;;;;;;;40.88;16.40;;;;;;;;;;1026936;28;20027;-75
2022/11/10 00:52:59;;;;;;;43.88;17.70;;;;;;;;;;1026369;28;20418;-75
2022/11/10 00:53:30;;;;;;;39.42;17.73;;;;;;;;;;1025889;28;20502;-75
2022/11/10 00:54:01;;;;;;;46.13;17.52;;;;;;;;;;1025701;28;20057;-75
2022/11/10 00:54:31;;;;;;;41.33;17.00;;;;;;;;;;1022922;28;20059;-75
2022/11/10 00:55:02;;;;;;;44.38;16.55;;;;;;;;;;1026319;28;20122;-75
2022/11/10 00:55:35;;;;;;;42.92;16.10;;;;;;;;;;1026013;28;20027;-75
2022/11/10 00:56:06;;;;;;;37.78;17.52;;;;;;;;;;1026915;28;20027;-75
2022/11/10 00:56:37;;;;;;;40.50;15.85;;;;;;;;;;1028211;28;20030;-75
2022/11/10 00:57:08;;;;;;;40.58;15.70;;;;;;;;;;1027937;28;20086;-75
2022/11/10 00:57:38;;;;;;;40.45;17.55;;;;;;;;;;1029851;28;20030;-75
2022/11/10 00:58:09;;;;;;;36.83;17.20;;;;;;;;;;1030221;28;20027;-75
2022/11/10 00:58:40;;;;;;;38.60;17.75;;;;;;;;;;1029655;28;20023;-75
2022/11/10 00:59:10;;;;;;;40.20;16.30;;;;;;;;;;1030647;28;21174;-75
2022/11/10 00:59:41;;;;;;;55.75;19.08;;;;;;;;;;1029785;28;20023;-75
2022/11/10 01:00:12;;;;;;;35.17;16.30;;;;;;;;;;1030929;28;20033;-75
2022/11/10 01:00:42;;;;;;;40.80;17.45;;;;;;;;;;1027804;28;20018;-75
2022/11/10 01:01:14;;;;;;;54.20;18.40;;;;;;;;;;1027919;28;20030;-75
2022/11/10 01:01:44;;;;;;;51.03;17.00;;;;;;;;;;1023562;28;20519;-75
2022/11/10 01:02:15;;;;;;;53.45;17.73;;;;;;;;;;1027198;28;20033;-75
2022/11/10 01:02:45;;;;;;;32.17;15.50;;;;;;;;;;1030252;28;20121;-75
2022/11/10 01:03:16;;;;;;;41.92;15.60;;;;;;;;;;1031413;28;20026;-75
2022/11/10 01:03:47;;;;;;;40.72;18.77;;;;;;;;;;1030394;28;20030;-74
2022/11/10 01:04:18;;;;;;;38.45;16.27;;;;;;;;;;1031657;28;20030;-74
2022/11/10 01:04:48;;;;;;;41.13;18.13;;;;;;;;;;1032823;28;20030;-74
2022/11/10 01:05:19;;;;;;;42.58;16.90;;;;;;;;;;1033695;28;20049;-75
2022/11/10 01:05:50;;;;;;;41.55;18.92;;;;;;;;;;1029948;28;20045;-75
2022/11/10 01:06:20;;;;;;;43.58;16.23;;;;;;;;;;1025875;28;20577;-76
2022/11/10 01:06:51;;;;;;;39.20;17.00;;;;;;;;;;1026979;28;20023;-75
2022/11/10 01:07:22;;;;;;;50.95;16.88;;;;;;;;;;1023503;28;20512;-76
2022/11/10 01:07:53;;;;;;;34.83;16.35;;;;;;;;;;1025623;28;20638;-75
2022/11/10 01:08:23;;;;;;;63.70;17.70;;;;;;;;;;1027758;28;20137;-75
2022/11/10 01:08:54;;;;;;;39.22;18.58;;;;;;;;;;1026399;28;20094;-75
2022/11/10 01:09:25;;;;;;;49.90;17.80;;;;;;;;;;1029731;28;20033;-75
2022/11/10 01:09:55;;;;;;;56.55;17.88;;;;;;;;;;1030031;28;20588;-75
2022/11/10 01:10:26;;;;;;;50.75;19.95;;;;;;;;;;1031063;28;20023;-75
2022/11/10 01:11:01;;;;;;;49.05;18.85;;;;;;;;;;1029927;28;20080;-75
2022/11/10 01:11:32;;;;;;;43.45;18.52;;;;;;;;;;1027785;28;20401;-75
2022/11/10 01:12:03;;;;;;;59.05;18.17;;;;;;;;;;1025120;28;20023;-75
2022/11/10 01:12:33;;;;;;;43.22;19.15;;;;;;;;;;1024490;28;20094;-75
2022/11/10 01:13:04;;;;;;;49.10;18.38;;;;;;;;;;1021761;29;20043;-75
2022/11/10 01:13:35;;;;;;;49.38;18.67;;;;;;;;;;1021625;28;20109;-75
2022/11/10 01:14:05;;;;;;;57.00;21.00;;;;;;;;;;1026684;28;20835;-75
2022/11/10 01:14:36;;;;;;;53.80;19.15;;;;;;;;;;1027208;28;20102;-75
2022/11/10 01:15:07;;;;;;;36.70;17.58;;;;;;;;;;1028615;28;20023;-75
2022/11/10 01:15:39;;;;;;;46.92;19.27;;;;;;;;;;1028927;28;20451;-75
2022/11/10 01:16:11;;;;;;;48.50;19.40;;;;;;;;;;1029994;28;20030;-75
2022/11/10 01:16:42;;;;;;;54.67;20.38;;;;;;;;;;1027439;28;20061;-75
2022/11/10 01:17:12;;;;;;;58.22;19.38;;;;;;;;;;1025652;28;20027;-75
2022/11/10 01:17:43;;;;;;;47.38;18.15;;;;;;;;;;1025814;28;20069;-75
2022/11/10 01:18:14;;;;;;;49.88;20.73;;;;;;;;;;1020539;29;20111;-75
2022/11/10 01:18:48;;;;;;;45.30;18.98;;;;;;;;;;1024918;28;20030;-75
2022/11/10 01:19:19;;;;;;;47.97;19.27;;;;;;;;;;1026048;28;20070;-75
2022/11/10 01:19:49;;;;;;;46.35;17.38;;;;;;;;;;1025743;28;20027;-75
2022/11/10 01:20:20;;;;;;;40.80;16.42;;;;;;;;;;1024369;28;20593;-75
2022/11/10 01:20:51;;;;;;;41.50;18.45;;;;;;;;;;1025104;28;20098;-75
2022/11/10 01:21:23;;;;;;;44.80;16.70;;;;;;;;;;1025133;28;20055;-75
2022/11/10 01:21:53;;;;;;;44.47;17.63;;;;;;;;;;1021979;28;20078;-75
2022/11/10 01:22:24;;;;;;;54.38;17.88;;;;;;;;;;1024953;28;20097;-75
2022/11/10 01:22:55;;;;;;;38.88;19.38;;;;;;;;;;1025749;28;20498;-75
2022/11/10 01:23:25;;;;;;;61.42;21.13;;;;;;;;;;1026499;28;20026;-75
2022/11/10 01:23:56;;;;;;;62.10;20.20;;;;;;;;;;1026520;28;20053;-75
2022/11/10 01:24:27;;;;;;;53.30;21.13;;;;;;;;;;1026155;28;20368;-75
2022/11/10 01:24:57;;;;;;;49.97;20.83;;;;;;;;;;1025117;28;20026;-75
2022/11/10 01:25:28;;;;;;;74.18;27.85;;;;;;;;;;1025750;28;20485;-75
2022/11/10 01:25:59;;;;;;;74.75;28.58;;;;;;;;;;1029488;28;20026;-75
2022/11/10 01:26:30;;;;;;;119.68;43.60;;;;;;;;;;1030043;28;20041;-75
2022/11/10 01:27:01;;;;;;;117.18;42.70;;;;;;;;;;1025765;28;20029;-75
2022/11/10 01:27:34;;;;;;;121.88;42.53;;;;;;;;;;1024343;28;20189;-75
2022/11/10 01:28:05;;;;;;;93.85;35.95;;;;;;;;;;1025493;28;20024;-75
2022/11/10 01:28:36;;;;;;;80.55;34.47;;;;;;;;;;1023162;28;20023;-76
2022/11/10 01:29:07;;;;;;;74.40;30.10;;;;;;;;;;1022471;29;20146;-75
2022/11/10 01:29:38;;;;;;;80.65;33.45;;;;;;;;;;1022633;29;20030;-75
2022/11/10 01:30:09;;;;;;;81.40;31.38;;;;;;;;;;1022864;28;20027;-75
2022/11/10 01:30:40;;;;;;;76.47;30.65;;;;;;;;;;1025417;28;20394;-75
2022/11/10 01:31:12;;;;;;;67.28;28.70;;;;;;;;;;1025436;28;20019;-75
2022/11/10 01:31:43;;;;;;;63.95;29.20;;;;;;;;;;1025290;28;20031;-75
2022/11/10 01:32:13;;;;;;;79.35;32.22;;;;;;;;;;1026568;28;20030;-75
2022/11/10 01:32:44;;;;;;;71.88;28.92;;;;;;;;;;1026645;28;20047;-75
2022/11/10 01:33:16;;;;;;;61.35;27.33;;;;;;;;;;1030137;28;20018;-75
2022/11/10 01:33:47;;;;;;;65.43;27.00;;;;;;;;;;1027802;28;20055;-74
2022/11/10 01:34:17;;;;;;;64.10;25.30;;;;;;;;;;1028698;28;20022;-74
2022/11/10 01:34:48;;;;;;;61.40;25.52;;;;;;;;;;1026136;28;20031;-75
2022/11/10 01:35:19;;;;;;;59.15;22.90;;;;;;;;;;1026410;28;20105;-75
2022/11/10 01:35:49;;;;;;;64.20;24.77;;;;;;;;;;1026171;28;20150;-75
2022/11/10 01:36:20;;;;;;;48.97;21.48;;;;;;;;;;1024623;28;20050;-75
2022/11/10 01:36:51;;;;;;;57.10;22.63;;;;;;;;;;1029693;28;20029;-75
2022/11/10 01:37:21;;;;;;;52.65;20.67;;;;;;;;;;1025026;28;20153;-75
2022/11/10 01:37:52;;;;;;;53.17;22.20;;;;;;;;;;1024196;28;20023;-74
2022/11/10 01:38:25;;;;;;;49.38;20.05;;;;;;;;;;1024590;28;20026;-75
2022/11/10 01:38:56;;;;;;;58.25;22.42;;;;;;;;;;1024778;28;20466;-75
2022/11/10 01:39:27;;;;;;;61.92;21.48;;;;;;;;;;1028921;28;20117;-75
2022/11/10 01:39:59;;;;;;;52.88;22.02;;;;;;;;;;1020349;29;20047;-75
2022/11/10 01:40:30;;;;;;;51.72;20.92;;;;;;;;;;1020510;29;20039;-75
2022/11/10 01:41:01;;;;;;;49.70;19.38;;;;;;;;;;1021146;29;20031;-75
2022/11/10 01:41:32;;;;;;;42.28;19.00;;;;;;;;;;1021570;28;20040;-75
2022/11/10 01:42:03;;;;;;;52.70;22.48;;;;;;;;;;1024447;28;20023;-75
2022/11/10 01:42:51;;;;;;;50.30;20.20;;;;;;;;;;1029460;28;20030;-75
2022/11/10 01:43:21;;;;;;;54.65;21.10;;;;;;;;;;1024846;28;20360;-75
2022/11/10 01:43:52;;;;;;;56.88;25.45;;;;;;;;;;1024439;28;20134;-75
2022/11/10 01:44:24;;;;;;;46.28;21.25;;;;;;;;;;1025276;28;20114;-75
2022/11/10 01:45:33;;;;;;;82.53;24.40;;;;;;;;;;1025236;28;20403;-75
2022/11/10 01:46:05;;;;;;;42.72;18.33;;;;;;;;;;1025577;28;20848;-75
2022/11/10 01:46:35;;;;;;;51.85;20.33;;;;;;;;;;1025221;28;20034;-75
2022/11/10 01:47:06;;;;;;;53.40;21.73;;;;;;;;;;1024837;28;20133;-75
2022/11/10 01:47:36;;;;;;;59.83;20.75;;;;;;;;;;1020970;28;20113;-75
2022/11/10 01:48:09;;;;;;;64.38;22.63;;;;;;;;;;1024493;28;20467;-75
2022/11/10 01:48:43;;;;;;;46.67;20.67;;;;;;;;;;1024545;28;20221;-75
2022/11/10 01:49:16;;;;;;;62.30;25.08;;;;;;;;;;1029261;28;20082;-75
2022/11/10 01:49:46;;;;;;;71.57;27.58;;;;;;;;;;1031414;28;20045;-75
2022/11/10 01:50:18;;;;;;;61.30;24.50;;;;;;;;;;1030735;28;20428;-75
2022/11/10 01:50:49;;;;;;;68.82;28.52;;;;;;;;;;1028980;28;20412;-75
2022/11/10 01:51:20;;;;;;;70.97;29.23;;;;;;;;;;1028068;28;20034;-75
2022/11/10 01:51:59;;;;;;;66.43;31.50;;;;;;;;;;1026077;28;20041;-76
2022/11/10 01:52:32;;;;;;;73.18;30.70;;;;;;;;;;1028894;28;20026;-75
2022/11/10 01:53:04;;;;;;;81.20;29.50;;;;;;;;;;1030115;28;20458;-74
2022/11/10 01:53:37;;;;;;;72.68;30.10;;;;;;;;;;1030800;28;20026;-75
2022/11/10 01:54:14;;;;;;;66.18;31.10;;;;;;;;;;1029072;28;20418;-75
2022/11/10 01:54:47;;;;;;;68.35;34.25;;;;;;;;;;1027800;28;20099;-75
2022/11/10 01:55:18;;;;;;;71.13;34.05;;;;;;;;;;1023950;28;20023;-75
2022/11/10 01:55:49;;;;;;;79.95;39.33;;;;;;;;;;1026018;28;20043;-75
2022/11/10 01:56:21;;;;;;;98.10;45.58;;;;;;;;;;1025088;28;20031;-75
2022/11/10 01:56:53;;;;;;;93.35;48.38;;;;;;;;;;1025522;28;20042;-73
2022/11/10 01:57:24;;;;;;;91.10;43.35;;;;;;;;;;1027803;28;20724;-74
2022/11/10 01:57:55;;;;;;;101.65;46.33;;;;;;;;;;1028461;28;20034;-76
2022/11/10 01:58:29;;;;;;;113.57;49.40;;;;;;;;;;1029107;28;20429;-74
2022/11/10 01:59:04;;;;;;;104.32;46.95;;;;;;;;;;1029999;28;20054;-75
2022/11/10 01:59:37;;;;;;;106.50;47.08;;;;;;;;;;1028972;28;20520;-76
2022/11/10 02:00:09;;;;;;;105.05;45.80;;;;;;;;;;1027596;28;20085;-75
2022/11/10 02:00:40;;;;;;;104.53;46.83;;;;;;;;;;1024865;28;20390;-75
2022/11/10 02:01:10;;;;;;;104.70;44.97;;;;;;;;;;1020481;29;20213;-75
2022/11/10 02:01:41;;;;;;;97.05;41.88;;;;;;;;;;1022460;29;20041;-75
2022/11/10 02:02:32;;;;;;;114.45;42.63;;;;;;;;;;1020893;28;20027;-75
2022/11/10 02:03:08;;;;;;;90.93;43.03;;;;;;;;;;1021524;28;20035;-75
2022/11/10 02:03:45;;;;;;;94.60;39.38;;;;;;;;;;1026537;28;20057;-75
2022/11/10 02:04:16;;;;;;;94.05;39.67;;;;;;;;;;1019387;29;20160;-75
2022/11/10 02:04:49;;;;;;;85.30;37.00;;;;;;;;;;1020503;28;20065;-75
2022/11/10 02:05:21;;;;;;;74.43;35.13;;;;;;;;;;1018689;29;20047;-75
2022/11/10 02:05:52;;;;;;;87.22;39.70;;;;;;;;;;1020930;28;20333;-76
2022/11/10 02:06:25;;;;;;;80.30;36.50;;;;;;;;;;1025219;28;20031;-75
2022/11/10 02:06:56;;;;;;;76.10;35.60;;;;;;;;;;1025728;28;20174;-76
2022/11/10 02:07:27;;;;;;;73.97;32.78;;;;;;;;;;1026325;28;20027;-76
2022/11/10 02:07:58;;;;;;;71.28;34.92;;;;;;;;;;1024531;28;20406;-74
2022/11/10 02:08:29;;;;;;;75.30;31.33;;;;;;;;;;1022594;28;20027;-73
2022/11/10 02:09:00;;;;;;;72.53;29.70;;;;;;;;;;1020709;28;20027;-75
2022/11/10 02:09:31;;;;;;;74.65;31.75;;;;;;;;;;1023872;28;20031;-75
2022/11/10 02:10:02;;;;;;;74.60;29.40;;;;;;;;;;1024370;28;20027;-76
2022/11/10 02:10:32;;;;;;;80.88;29.27;;;;;;;;;;1030374;28;20191;-76
2022/11/10 02:11:03;;;;;;;68.80;27.52;;;;;;;;;;1029077;28;20026;-76
2022/11/10 02:11:35;;;;;;;72.30;31.55;;;;;;;;;;1029633;28;20042;-76
2022/11/10 02:12:05;;;;;;;83.22;34.80;;;;;;;;;;1025183;28;20031;-75
2022/11/10 02:12:36;;;;;;;72.03;32.78;;;;;;;;;;1024923;28;20031;-74
2022/11/10 02:13:07;;;;;;;76.95;34.72;;;;;;;;;;1025638;28;20457;-74
2022/11/10 02:13:38;;;;;;;74.95;32.47;;;;;;;;;;1024752;28;20027;-74
2022/11/10 02:14:10;;;;;;;71.18;32.50;;;;;;;;;;1026313;28;20053;-74
2022/11/10 02:14:42;;;;;;;65.13;29.98;;;;;;;;;;1021929;28;20054;-76
2022/11/10 02:15:14;;;;;;;72.38;32.13;;;;;;;;;;1026088;28;20053;-74
2022/11/10 02:15:45;;;;;;;72.00;34.28;;;;;;;;;;1025069;28;20041;-74
2022/11/10 02:16:16;;;;;;;67.13;28.70;;;;;;;;;;1025141;28;20057;-74
2022/11/10 02:16:47;;;;;;;79.97;31.10;;;;;;;;;;1024028;28;20027;-74
2022/11/10 02:17:18;;;;;;;72.70;28.90;;;;;;;;;;1020230;28;20031;-74
2022/11/10 02:17:49;;;;;;;59.75;27.67;;;;;;;;;;1020554;29;20457;-75
2022/11/10 02:18:19;;;;;;;66.57;28.35;;;;;;;;;;1025257;28;20034;-75
2022/11/10 02:18:51;;;;;;;87.82;31.30;;;;;;;;;;1025738;28;20438;-75
2022/11/10 02:19:23;;;;;;;80.03;30.73;;;;;;;;;;1025285;28;20697;-75
2022/11/10 02:19:57;;;;;;;79.38;29.88;;;;;;;;;;1023150;29;20752;-75
2022/11/10 02:20:28;;;;;;;72.35;29.52;;;;;;;;;;1019759;28;20095;-75
2022/11/10 02:20:59;;;;;;;72.35;28.10;;;;;;;;;;1023237;29;20120;-75
2022/11/10 02:21:29;;;;;;;72.43;30.13;;;;;;;;;;1018482;29;20032;-75
2022/11/10 02:22:01;;;;;;;68.00;26.92;;;;;;;;;;1019210;29;20030;-75
2022/11/10 02:22:31;;;;;;;65.10;28.77;;;;;;;;;;1022569;29;20028;-76
2022/11/10 02:23:12;;;;;;;64.35;27.27;;;;;;;;;;1022113;28;20114;-76
2022/11/10 02:23:44;;;;;;;66.30;29.25;;;;;;;;;;1026490;28;20154;-75
2022/11/10 02:24:15;;;;;;;73.63;29.27;;;;;;;;;;1025899;28;20039;-75
2022/11/10 02:24:45;;;;;;;75.25;31.58;;;;;;;;;;1022797;29;20455;-75
2022/11/10 02:25:19;;;;;;;91.25;32.92;;;;;;;;;;1021349;29;20062;-75
2022/11/10 02:25:50;;;;;;;70.05;30.80;;;;;;;;;;1020346;28;20039;-76
2022/11/10 02:26:23;;;;;;;86.25;34.03;;;;;;;;;;1025485;28;20550;-75
2022/11/10 02:26:55;;;;;;;72.72;34.25;;;;;;;;;;1025039;28;20038;-75
2022/11/10 02:27:26;;;;;;;74.85;34.70;;;;;;;;;;1019953;29;20028;-75
2022/11/10 02:27:57;;;;;;;81.40;32.55;;;;;;;;;;1019743;29;20028;-75
2022/11/10 02:28:28;;;;;;;70.15;32.83;;;;;;;;;;1016263;29;20111;-76
2022/11/10 02:28:59;;;;;;;76.88;31.70;;;;;;;;;;1018279;29;20039;-76
2022/11/10 02:29:29;;;;;;;69.55;30.15;;;;;;;;;;1020478;28;20034;-75
2022/11/10 02:30:00;;;;;;;85.30;31.33;;;;;;;;;;1025030;28;20027;-75
2022/11/10 02:30:31;;;;;;;96.10;31.73;;;;;;;;;;1022991;28;20023;-75
2022/11/10 02:31:02;;;;;;;74.07;30.75;;;;;;;;;;1024629;28;20049;-75
2022/11/10 02:31:34;;;;;;;80.25;31.92;;;;;;;;;;1025054;28;20728;-75
2022/11/10 02:32:06;;;;;;;73.97;29.77;;;;;;;;;;1024736;28;20518;-75
2022/11/10 02:32:37;;;;;;;77.10;30.38;;;;;;;;;;1023230;28;20124;-75
2022/11/10 02:33:08;;;;;;;72.60;31.40;;;;;;;;;;1024067;28;20182;-75
2022/11/10 02:33:39;;;;;;;66.93;29.60;;;;;;;;;;1024603;28;20034;-75
2022/11/10 02:34:09;;;;;;;58.83;25.15;;;;;;;;;;1023589;28;20166;-75
2022/11/10 02:34:40;;;;;;;65.50;28.27;;;;;;;;;;1021347;28;20502;-75
2022/11/10 02:35:11;;;;;;;66.05;27.80;;;;;;;;;;1025591;28;20031;-75
2022/11/10 02:35:42;;;;;;;70.57;28.25;;;;;;;;;;1028266;28;20109;-76
2022/11/10 02:36:12;;;;;;;69.97;30.75;;;;;;;;;;1027924;28;20037;-76
2022/11/10 02:36:43;;;;;;;67.93;28.95;;;;;;;;;;1029022;28;20033;-77
2022/11/10 02:37:14;;;;;;;64.50;29.80;;;;;;;;;;1028902;28;20054;-76
2022/11/10 02:37:44;;;;;;;85.57;35.92;;;;;;;;;;1029526;28;20027;-76
2022/11/10 02:38:15;;;;;;;73.70;32.08;;;;;;;;;;1028593;28;20362;-75
2022/11/10 02:38:46;;;;;;;69.68;33.10;;;;;;;;;;1030317;28;20034;-75
2022/11/10 02:39:16;;;;;;;76.35;33.53;;;;;;;;;;1024783;28;20516;-74
2022/11/10 02:39:47;;;;;;;62.60;32.35;;;;;;;;;;1024848;28;20367;-76
2022/11/10 02:40:18;;;;;;;77.05;31.90;;;;;;;;;;1025755;28;20031;-75
2022/11/10 02:40:49;;;;;;;62.55;30.33;;;;;;;;;;1024866;28;20035;-75
2022/11/10 02:41:19;;;;;;;65.28;30.27;;;;;;;;;;1027018;28;20023;-76
2022/11/10 02:41:50;;;;;;;73.60;32.58;;;;;;;;;;1029191;28;20512;-75
2022/11/10 02:42:20;;;;;;;70.60;32.55;;;;;;;;;;1026471;28;20023;-76
2022/11/10 02:42:51;;;;;;;90.25;35.97;;;;;;;;;;1031201;28;20026;-77
2022/11/10 02:43:22;;;;;;;77.63;33.83;;;;;;;;;;1028336;28;20022;-74
2022/11/10 02:43:53;;;;;;;75.20;32.50;;;;;;;;;;1025071;28;20049;-75
2022/11/10 02:44:24;;;;;;;86.20;35.08;;;;;;;;;;1024263;28;20019;-75
2022/11/10 02:44:55;;;;;;;76.80;35.25;;;;;;;;;;1024581;28;20030;-75
2022/11/10 02:45:26;;;;;;;70.97;32.40;;;;;;;;;;1025372;28;20032;-74
2022/11/10 02:45:57;;;;;;;67.60;33.53;;;;;;;;;;1027005;28;20176;-76
2022/11/10 02:46:28;;;;;;;65.28;31.92;;;;;;;;;;1029775;28;20436;-75
2022/11/10 02:46:59;;;;;;;69.60;34.17;;;;;;;;;;1028069;28;20023;-75
2022/11/10 02:47:30;;;;;;;74.13;34.85;;;;;;;;;;1027497;28;20363;-74
2022/11/10 02:48:00;;;;;;;70.22;32.17;;;;;;;;;;1023578;28;20028;-74
2022/11/10 02:48:31;;;;;;;68.40;32.17;;;;;;;;;;1025053;28;20023;-75
2022/11/10 02:49:02;;;;;;;68.25;30.23;;;;;;;;;;1023180;28;20035;-74
2022/11/10 02:49:33;;;;;;;109.63;51.17;;;;;;;;;;1022124;28;20489;-75
2022/11/10 02:50:04;;;;;;;113.03;52.35;;;;;;;;;;1025280;28;20070;-75
2022/11/10 02:50:35;;;;;;;92.57;44.50;;;;;;;;;;1024350;28;20113;-75
2022/11/10 02:51:06;;;;;;;87.63;40.65;;;;;;;;;;1024216;28;20027;-75
2022/11/10 02:51:38;;;;;;;98.40;49.85;;;;;;;;;;1027287;28;20057;-75
2022/11/10 02:52:11;;;;;;;99.18;49.25;;;;;;;;;;1022670;28;20023;-75
2022/11/10 02:52:42;;;;;;;96.03;46.03;;;;;;;;;;1020781;29;20823;-75
2022/11/10 02:53:13;;;;;;;106.47;49.20;;;;;;;;;;1025470;28;20539;-75
2022/11/10 02:53:43;;;;;;;86.82;35.40;;;;;;;;;;1026277;28;20045;-74
2022/11/10 02:54:14;;;;;;;70.40;30.48;;;;;;;;;;1025600;28;20022;-74
2022/11/10 02:54:45;;;;;;;74.55;29.65;;;;;;;;;;1023235;28;20423;-74
2022/11/10 02:55:16;;;;;;;79.70;39.63;;;;;;;;;;1019489;28;20019;-75
2022/11/10 02:55:47;;;;;;;92.57;42.75;;;;;;;;;;1016626;29;20027;-76
2022/11/10 02:56:18;;;;;;;94.18;41.67;;;;;;;;;;1019651;29;20059;-75
2022/11/10 02:56:49;;;;;;;94.65;37.42;;;;;;;;;;1021202;29;20023;-76
2022/11/10 02:57:20;;;;;;;77.32;37.63;;;;;;;;;;1021392;28;20047;-73
2022/11/10 02:57:50;;;;;;;85.90;33.38;;;;;;;;;;1023589;28;20042;-75
2022/11/10 02:58:22;;;;;;;67.10;28.95;;;;;;;;;;1028693;28;20033;-75
2022/11/10 02:58:55;;;;;;;83.00;30.88;;;;;;;;;;1028637;28;20104;-75
2022/11/10 02:59:28;;;;;;;68.10;30.60;;;;;;;;;;1031269;28;20026;-75
2022/11/10 03:00:02;;;;;;;59.90;30.80;;;;;;;;;;1028380;28;21476;-76
2022/11/10 03:00:35;;;;;;;70.63;32.22;;;;;;;;;;1030326;28;20019;-75
2022/11/10 03:01:08;;;;;;;60.55;32.28;;;;;;;;;;1027188;28;20019;-75
2022/11/10 03:01:40;;;;;;;89.35;39.05;;;;;;;;;;1025345;28;20096;-75
2022/11/10 03:02:12;;;;;;;76.03;37.33;;;;;;;;;;1020723;28;20033;-75
2022/11/10 03:02:45;;;;;;;72.15;38.67;;;;;;;;;;1018186;29;20392;-75
2022/11/10 03:03:18;;;;;;;67.53;30.45;;;;;;;;;;1018867;29;20036;-74
2022/11/10 03:03:50;;;;;;;58.65;28.25;;;;;;;;;;1020298;28;20031;-76
2022/11/10 03:04:21;;;;;;;61.65;27.77;;;;;;;;;;1022611;28;20172;-75
2022/11/10 03:04:52;;;;;;;60.63;26.67;;;;;;;;;;1023711;28;20398;-74
2022/11/10 03:05:23;;;;;;;63.65;28.45;;;;;;;;;;1026049;28;20030;-75
2022/11/10 03:05:54;;;;;;;69.75;27.45;;;;;;;;;;1021233;28;20626;-75